sensor_id;sensor_type;location;lat;lon;timestamp;pressure;altitude;pressure_sealevel;temperature;humidity
35226;BME280;21813;49.686;21.766;2023-08-06T00:01:53;97065.25;;;20.99;100.00
35226;BME280;21813;49.686;21.766;2023-08-06T00:04:18;97055.22;;;21.01;100.00
35226;BME280;21813;49.686;21.766;2023-08-06T00:06:46;97044.28;;;20.97;100.00
35226;BME280;21813;49.686;21.766;2023-08-06T00:09:12;97046.72;;;20.99;100.00
35226;BME280;21813;49.686;21.766;2023-08-06T00:11:40;97048.31;;;21.00;100.00
35226;BME280;21813;49.686;21.766;2023-08-06T00:14:06;97027.88;;;20.89;100.00
35226;BME280;21813;49.686;21.766;2023-08-06T00:16:43;97034.03;;;21.01;100.00
35226;BME280;21813;49.686;21.766;2023-08-06T00:19:09;97016.25;;;20.90;100.00
35226;BME280;21813;49.686;21.766;2023-08-06T00:21:37;97031.19;;;21.02;100.00
35226;BME280;21813;49.686;21.766;2023-08-06T00:24:02;97013.19;;;20.86;100.00
35226;BME280;21813;49.686;21.766;2023-08-06T00:26:30;96998.44;;;20.79;100.00
35226;BME280;21813;49.686;21.766;2023-08-06T00:28:55;96993.56;;;20.76;100.00
35226;BME280;21813;49.686;21.766;2023-08-06T00:31:23;97009.75;;;20.86;100.00
35226;BME280;21813;49.686;21.766;2023-08-06T00:33:49;96979.59;;;20.68;100.00
35226;BME280;21813;49.686;21.766;2023-08-06T00:36:16;97017.28;;;20.89;100.00
35226;BME280;21813;49.686;21.766;2023-08-06T00:38:42;97014.63;;;20.89;100.00
35226;BME280;21813;49.686;21.766;2023-08-06T00:41:09;96989.47;;;20.80;100.00
35226;BME280;21813;49.686;21.766;2023-08-06T00:43:35;97012.19;;;20.87;100.00
35226;BME280;21813;49.686;21.766;2023-08-06T00:46:06;97002.91;;;20.78;100.00
35226;BME280;21813;49.686;21.766;2023-08-06T00:48:32;96980.19;;;20.70;100.00
35226;BME280;21813;49.686;21.766;2023-08-06T00:51:01;96993.94;;;20.79;100.00
35226;BME280;21813;49.686;21.766;2023-08-06T00:53:27;96999.44;;;20.78;100.00
35226;BME280;21813;49.686;21.766;2023-08-06T00:55:54;97004.91;;;20.83;100.00
35226;BME280;21813;49.686;21.766;2023-08-06T00:58:20;96984.00;;;20.75;100.00
35226;BME280;21813;49.686;21.766;2023-08-06T01:00:49;96972.25;;;20.70;100.00
35226;BME280;21813;49.686;21.766;2023-08-06T01:03:35;96994.66;;;20.86;100.00
35226;BME280;21813;49.686;21.766;2023-08-06T01:12:21;96952.94;;;20.63;100.00
35226;BME280;21813;49.686;21.766;2023-08-06T01:40:12;96926.56;;;20.39;100.00
35226;BME280;21813;49.686;21.766;2023-08-06T01:49:23;96907.47;;;20.30;100.00
35226;BME280;21813;49.686;21.766;2023-08-06T01:52:20;96915.16;;;20.38;100.00
35226;BME280;21813;49.686;21.766;2023-08-06T01:55:04;96899.16;;;20.26;100.00
35226;BME280;21813;49.686;21.766;2023-08-06T01:57:39;96902.19;;;20.30;100.00
35226;BME280;21813;49.686;21.766;2023-08-06T02:00:44;96894.25;;;20.30;100.00
35226;BME280;21813;49.686;21.766;2023-08-06T02:10:55;96882.69;;;20.24;100.00
35226;BME280;21813;49.686;21.766;2023-08-06T02:13:48;96877.16;;;20.26;100.00
35226;BME280;21813;49.686;21.766;2023-08-06T02:16:29;96878.06;;;20.20;100.00
35226;BME280;21813;49.686;21.766;2023-08-06T02:19:00;96912.66;;;20.43;100.00
35226;BME280;21813;49.686;21.766;2023-08-06T02:21:44;96879.25;;;20.24;100.00
35226;BME280;21813;49.686;21.766;2023-08-06T02:29:26;96900.91;;;20.39;100.00
35226;BME280;21813;49.686;21.766;2023-08-06T02:31:57;96892.56;;;20.36;100.00
35226;BME280;21813;49.686;21.766;2023-08-06T02:34:22;96903.09;;;20.42;100.00
35226;BME280;21813;49.686;21.766;2023-08-06T02:36:53;96879.41;;;20.29;100.00
35226;BME280;21813;49.686;21.766;2023-08-06T02:39:27;96861.94;;;20.21;100.00
35226;BME280;21813;49.686;21.766;2023-08-06T02:42:10;96847.34;;;20.19;100.00
35226;BME280;21813;49.686;21.766;2023-08-06T02:44:54;96854.63;;;20.23;100.00
35226;BME280;21813;49.686;21.766;2023-08-06T03:12:18;96845.75;;;20.36;100.00
35226;BME280;21813;49.686;21.766;2023-08-06T03:23:16;96840.56;;;20.23;100.00
35226;BME280;21813;49.686;21.766;2023-08-06T03:25:47;96825.81;;;20.15;100.00
35226;BME280;21813;49.686;21.766;2023-08-06T03:28:12;96814.06;;;20.11;100.00
35226;BME280;21813;49.686;21.766;2023-08-06T03:30:43;96831.47;;;20.19;100.00
35226;BME280;21813;49.686;21.766;2023-08-06T03:33:10;96792.34;;;20.03;100.00
35226;BME280;21813;49.686;21.766;2023-08-06T03:35:40;96821.25;;;20.22;100.00
35226;BME280;21813;49.686;21.766;2023-08-06T03:38:06;96819.41;;;20.23;100.00
35226;BME280;21813;49.686;21.766;2023-08-06T03:40:35;96828.81;;;20.19;100.00
35226;BME280;21813;49.686;21.766;2023-08-06T03:43:01;96795.75;;;19.92;100.00
35226;BME280;21813;49.686;21.766;2023-08-06T03:45:32;96799.88;;;19.88;100.00
35226;BME280;21813;49.686;21.766;2023-08-06T03:48:03;96796.16;;;19.89;100.00
35226;BME280;21813;49.686;21.766;2023-08-06T03:50:47;96824.91;;;20.03;100.00
35226;BME280;21813;49.686;21.766;2023-08-06T03:53:19;96820.00;;;20.07;100.00
35226;BME280;21813;49.686;21.766;2023-08-06T04:06:14;96738.16;;;19.75;100.00
35226;BME280;21813;49.686;21.766;2023-08-06T04:08:40;96770.94;;;19.93;100.00
35226;BME280;21813;49.686;21.766;2023-08-06T04:11:06;96783.41;;;20.04;100.00
35226;BME280;21813;49.686;21.766;2023-08-06T04:13:34;96781.78;;;20.03;100.00
35226;BME280;21813;49.686;21.766;2023-08-06T04:16:03;96758.56;;;19.87;100.00
35226;BME280;21813;49.686;21.766;2023-08-06T04:18:30;96750.03;;;19.84;100.00
35226;BME280;21813;49.686;21.766;2023-08-06T04:20:55;96774.44;;;20.05;100.00
35226;BME280;21813;49.686;21.766;2023-08-06T04:23:24;96773.63;;;20.04;100.00
35226;BME280;21813;49.686;21.766;2023-08-06T04:25:50;96771.00;;;20.04;100.00
35226;BME280;21813;49.686;21.766;2023-08-06T04:28:19;96764.31;;;20.02;100.00
35226;BME280;21813;49.686;21.766;2023-08-06T04:30:44;96769.75;;;20.07;100.00
35226;BME280;21813;49.686;21.766;2023-08-06T04:33:11;96767.09;;;20.07;100.00
35226;BME280;21813;49.686;21.766;2023-08-06T04:43:23;96715.97;;;19.95;100.00
35226;BME280;21813;49.686;21.766;2023-08-06T04:46:02;96743.13;;;20.20;100.00
35226;BME280;21813;49.686;21.766;2023-08-06T04:48:27;96714.31;;;20.12;100.00
35226;BME280;21813;49.686;21.766;2023-08-06T04:50:55;96718.50;;;20.19;100.00
35226;BME280;21813;49.686;21.766;2023-08-06T04:53:20;96710.22;;;20.16;100.00
35226;BME280;21813;49.686;21.766;2023-08-06T05:01:53;96688.13;;;20.10;100.00
35226;BME280;21813;49.686;21.766;2023-08-06T05:04:50;96698.03;;;20.15;100.00
35226;BME280;21813;49.686;21.766;2023-08-06T05:07:29;96719.06;;;20.40;100.00
35226;BME280;21813;49.686;21.766;2023-08-06T05:10:04;96686.09;;;20.24;100.00
35226;BME280;21813;49.686;21.766;2023-08-06T05:12:38;96718.53;;;20.49;100.00
35226;BME280;21813;49.686;21.766;2023-08-06T05:15:07;96693.56;;;20.27;100.00
35226;BME280;21813;49.686;21.766;2023-08-06T05:17:35;96727.53;;;20.48;100.00
35226;BME280;21813;49.686;21.766;2023-08-06T05:20:01;96690.50;;;20.30;100.00
35226;BME280;21813;49.686;21.766;2023-08-06T05:25:26;96706.78;;;20.45;100.00
35226;BME280;21813;49.686;21.766;2023-08-06T05:28:07;96684.91;;;20.38;100.00
35226;BME280;21813;49.686;21.766;2023-08-06T05:30:42;96692.66;;;20.51;100.00
35226;BME280;21813;49.686;21.766;2023-08-06T05:33:17;96709.75;;;20.79;100.00
35226;BME280;21813;49.686;21.766;2023-08-06T05:36:14;96714.38;;;20.95;100.00
35226;BME280;21813;49.686;21.766;2023-08-06T05:39:10;96709.47;;;21.10;100.00
35226;BME280;21813;49.686;21.766;2023-08-06T05:41:50;96694.66;;;21.21;100.00
35226;BME280;21813;49.686;21.766;2023-08-06T05:45:09;96687.97;;;21.30;100.00
35226;BME280;21813;49.686;21.766;2023-08-06T05:47:50;96680.00;;;21.30;100.00
35226;BME280;21813;49.686;21.766;2023-08-06T05:50:32;96696.94;;;21.52;100.00
35226;BME280;21813;49.686;21.766;2023-08-06T05:52:58;96698.63;;;21.70;100.00
35226;BME280;21813;49.686;21.766;2023-08-06T05:55:29;96686.06;;;21.77;100.00
35226;BME280;21813;49.686;21.766;2023-08-06T05:57:56;96689.28;;;21.79;100.00
35226;BME280;21813;49.686;21.766;2023-08-06T06:00:31;96704.50;;;21.83;100.00
35226;BME280;21813;49.686;21.766;2023-08-06T06:02:56;96704.84;;;21.87;100.00
35226;BME280;21813;49.686;21.766;2023-08-06T06:05:23;96692.38;;;21.87;100.00
35226;BME280;21813;49.686;21.766;2023-08-06T06:07:49;96673.81;;;21.87;100.00
35226;BME280;21813;49.686;21.766;2023-08-06T06:10:16;96695.91;;;22.16;100.00
35226;BME280;21813;49.686;21.766;2023-08-06T06:12:42;96671.91;;;22.11;100.00
35226;BME280;21813;49.686;21.766;2023-08-06T06:15:29;96694.44;;;22.37;100.00
35226;BME280;21813;49.686;21.766;2023-08-06T06:18:00;96678.41;;;22.32;100.00
35226;BME280;21813;49.686;21.766;2023-08-06T06:20:25;96699.28;;;22.57;100.00
35226;BME280;21813;49.686;21.766;2023-08-06T06:22:55;96675.16;;;22.58;100.00
35226;BME280;21813;49.686;21.766;2023-08-06T06:25:21;96696.16;;;22.88;100.00
35226;BME280;21813;49.686;21.766;2023-08-06T06:27:52;96681.81;;;22.89;100.00
35226;BME280;21813;49.686;21.766;2023-08-06T06:30:18;96699.38;;;23.23;100.00
35226;BME280;21813;49.686;21.766;2023-08-06T06:32:52;96709.66;;;23.37;100.00
35226;BME280;21813;49.686;21.766;2023-08-06T06:41:01;96700.78;;;23.64;100.00
35226;BME280;21813;49.686;21.766;2023-08-06T06:43:36;96694.25;;;23.72;100.00
35226;BME280;21813;49.686;21.766;2023-08-06T06:46:03;96691.41;;;23.78;100.00
35226;BME280;21813;49.686;21.766;2023-08-06T06:48:44;96676.69;;;23.93;100.00
35226;BME280;21813;49.686;21.766;2023-08-06T06:51:16;96687.56;;;24.35;100.00
35226;BME280;21813;49.686;21.766;2023-08-06T06:53:42;96662.78;;;24.34;100.00
35226;BME280;21813;49.686;21.766;2023-08-06T06:56:10;96695.25;;;24.58;100.00
35226;BME280;21813;49.686;21.766;2023-08-06T06:58:35;96681.38;;;24.56;100.00
35226;BME280;21813;49.686;21.766;2023-08-06T07:01:17;96705.22;;;24.68;100.00
35226;BME280;21813;49.686;21.766;2023-08-06T07:03:43;96701.59;;;24.52;100.00
35226;BME280;21813;49.686;21.766;2023-08-06T07:06:10;96715.66;;;24.47;100.00
35226;BME280;21813;49.686;21.766;2023-08-06T07:08:40;96702.59;;;24.46;100.00
35226;BME280;21813;49.686;21.766;2023-08-06T07:11:36;96709.09;;;24.55;100.00
35226;BME280;21813;49.686;21.766;2023-08-06T07:14:17;96715.94;;;24.46;100.00
35226;BME280;21813;49.686;21.766;2023-08-06T07:16:58;96685.41;;;24.32;100.00
35226;BME280;21813;49.686;21.766;2023-08-06T07:19:34;96705.22;;;24.41;100.00
35226;BME280;21813;49.686;21.766;2023-08-06T07:22:27;96695.16;;;24.48;100.00
35226;BME280;21813;49.686;21.766;2023-08-06T07:25:04;96671.03;;;24.33;100.00
35226;BME280;21813;49.686;21.766;2023-08-06T07:31:41;96715.81;;;24.62;98.88
35226;BME280;21813;49.686;21.766;2023-08-06T07:34:33;96692.50;;;24.48;99.86
35226;BME280;21813;49.686;21.766;2023-08-06T07:37:10;96707.47;;;24.54;98.63
35226;BME280;21813;49.686;21.766;2023-08-06T07:44:58;96709.53;;;24.47;99.84
35226;BME280;21813;49.686;21.766;2023-08-06T07:48:11;96704.66;;;24.39;99.66
35226;BME280;21813;49.686;21.766;2023-08-06T07:50:38;96680.94;;;24.15;100.00
35226;BME280;21813;49.686;21.766;2023-08-06T07:53:16;96667.03;;;24.08;99.89
35226;BME280;21813;49.686;21.766;2023-08-06T07:56:09;96694.63;;;24.24;98.74
35226;BME280;21813;49.686;21.766;2023-08-06T07:58:56;96673.78;;;24.16;99.74
35226;BME280;21813;49.686;21.766;2023-08-06T08:01:32;96689.63;;;24.28;100.00
35226;BME280;21813;49.686;21.766;2023-08-06T08:04:29;96714.69;;;24.32;100.00
35226;BME280;21813;49.686;21.766;2023-08-06T08:10:54;96698.41;;;23.63;100.00
35226;BME280;21813;49.686;21.766;2023-08-06T08:13:29;96719.25;;;23.54;100.00
35226;BME280;21813;49.686;21.766;2023-08-06T08:16:00;96711.84;;;23.23;100.00
35226;BME280;21813;49.686;21.766;2023-08-06T08:19:17;96722.00;;;23.26;100.00
35226;BME280;21813;49.686;21.766;2023-08-06T08:21:49;96734.16;;;23.22;100.00
35226;BME280;21813;49.686;21.766;2023-08-06T08:24:25;96712.91;;;23.05;100.00
35226;BME280;21813;49.686;21.766;2023-08-06T08:27:05;96711.78;;;23.01;100.00
35226;BME280;21813;49.686;21.766;2023-08-06T08:29:31;96746.59;;;23.16;100.00
35226;BME280;21813;49.686;21.766;2023-08-06T08:32:05;96744.81;;;23.05;100.00
35226;BME280;21813;49.686;21.766;2023-08-06T08:34:34;96740.63;;;22.93;100.00
35226;BME280;21813;49.686;21.766;2023-08-06T08:37:01;96756.06;;;23.12;100.00
35226;BME280;21813;49.686;21.766;2023-08-06T08:39:27;96727.88;;;22.95;100.00
35226;BME280;21813;49.686;21.766;2023-08-06T08:42:01;96744.00;;;23.05;100.00
35226;BME280;21813;49.686;21.766;2023-08-06T08:44:34;96741.56;;;23.03;100.00
35226;BME280;21813;49.686;21.766;2023-08-06T08:47:28;96747.31;;;23.12;100.00
35226;BME280;21813;49.686;21.766;2023-08-06T08:50:10;96753.69;;;23.11;100.00
35226;BME280;21813;49.686;21.766;2023-08-06T08:52:43;96739.00;;;23.08;100.00
35226;BME280;21813;49.686;21.766;2023-08-06T08:55:14;96741.28;;;23.16;100.00
35226;BME280;21813;49.686;21.766;2023-08-06T08:57:41;96734.91;;;23.17;100.00
35226;BME280;21813;49.686;21.766;2023-08-06T09:00:07;96740.94;;;23.29;99.52
35226;BME280;21813;49.686;21.766;2023-08-06T09:02:36;96742.25;;;23.44;98.01
35226;BME280;21813;49.686;21.766;2023-08-06T09:08:17;96754.72;;;23.26;96.18
35226;BME280;21813;49.686;21.766;2023-08-06T09:10:48;96782.28;;;23.20;96.32
35226;BME280;21813;49.686;21.766;2023-08-06T09:13:17;96753.94;;;22.81;96.09
35226;BME280;21813;49.686;21.766;2023-08-06T09:15:45;96770.56;;;22.88;97.55
35226;BME280;21813;49.686;21.766;2023-08-06T09:18:12;96764.75;;;22.91;98.53
35226;BME280;21813;49.686;21.766;2023-08-06T09:20:39;96749.41;;;22.93;99.91
35226;BME280;21813;49.686;21.766;2023-08-06T09:23:09;96730.47;;;23.06;99.01
35226;BME280;21813;49.686;21.766;2023-08-06T09:25:39;96727.25;;;23.04;97.84
35226;BME280;21813;49.686;21.766;2023-08-06T09:28:08;96720.09;;;22.88;97.85
35226;BME280;21813;49.686;21.766;2023-08-06T09:30:36;96748.91;;;22.96;98.81
35226;BME280;21813;49.686;21.766;2023-08-06T09:33:03;96749.00;;;23.01;99.16
35226;BME280;21813;49.686;21.766;2023-08-06T09:35:31;96731.13;;;22.97;98.53
35226;BME280;21813;49.686;21.766;2023-08-06T09:38:07;96742.41;;;23.20;98.35
35226;BME280;21813;49.686;21.766;2023-08-06T09:40:35;96750.13;;;23.39;98.42
35226;BME280;21813;49.686;21.766;2023-08-06T09:43:01;96723.69;;;23.32;96.74
35226;BME280;21813;49.686;21.766;2023-08-06T09:48:24;96730.25;;;23.24;95.24
35226;BME280;21813;49.686;21.766;2023-08-06T09:50:53;96737.50;;;23.29;95.44
35226;BME280;21813;49.686;21.766;2023-08-06T09:53:19;96732.41;;;23.11;96.59
35226;BME280;21813;49.686;21.766;2023-08-06T09:55:47;96747.16;;;23.18;97.24
35226;BME280;21813;49.686;21.766;2023-08-06T09:58:12;96733.53;;;23.15;97.24
35226;BME280;21813;49.686;21.766;2023-08-06T10:00:41;96707.75;;;22.99;97.35
35226;BME280;21813;49.686;21.766;2023-08-06T10:03:15;96697.75;;;22.89;98.61
35226;BME280;21813;49.686;21.766;2023-08-06T10:05:45;96691.41;;;22.90;100.00
35226;BME280;21813;49.686;21.766;2023-08-06T10:08:12;96710.84;;;23.07;97.61
35226;BME280;21813;49.686;21.766;2023-08-06T10:10:39;96698.31;;;23.08;96.66
35226;BME280;21813;49.686;21.766;2023-08-06T10:13:06;96701.63;;;23.15;97.04
35226;BME280;21813;49.686;21.766;2023-08-06T10:15:35;96690.81;;;23.21;96.37
35226;BME280;21813;49.686;21.766;2023-08-06T10:18:04;96693.09;;;23.29;96.58
35226;BME280;21813;49.686;21.766;2023-08-06T10:20:36;96682.63;;;23.23;97.14
35226;BME280;21813;49.686;21.766;2023-08-06T10:23:05;96684.53;;;23.27;97.80
35226;BME280;21813;49.686;21.766;2023-08-06T10:25:35;96686.97;;;23.29;96.64
35226;BME280;21813;49.686;21.766;2023-08-06T10:28:09;96697.91;;;23.32;96.78
35226;BME280;21813;49.686;21.766;2023-08-06T10:30:45;96687.28;;;23.32;95.43
35226;BME280;21813;49.686;21.766;2023-08-06T10:33:11;96702.09;;;23.45;95.72
35226;BME280;21813;49.686;21.766;2023-08-06T10:35:48;96712.75;;;23.62;96.33
35226;BME280;21813;49.686;21.766;2023-08-06T10:38:26;96708.66;;;23.76;96.99
35226;BME280;21813;49.686;21.766;2023-08-06T10:41:23;96705.66;;;23.89;93.95
35226;BME280;21813;49.686;21.766;2023-08-06T10:44:14;96718.75;;;23.96;92.44
35226;BME280;21813;49.686;21.766;2023-08-06T10:50:16;96697.28;;;24.02;92.07
35226;BME280;21813;49.686;21.766;2023-08-06T10:52:49;96689.81;;;23.99;92.57
35226;BME280;21813;49.686;21.766;2023-08-06T10:55:35;96710.03;;;24.00;91.86
35226;BME280;21813;49.686;21.766;2023-08-06T10:58:05;96697.28;;;24.02;93.18
35226;BME280;21813;49.686;21.766;2023-08-06T11:00:30;96696.78;;;24.05;90.56
35226;BME280;21813;49.686;21.766;2023-08-06T11:03:03;96674.06;;;23.98;89.81
35226;BME280;21813;49.686;21.766;2023-08-06T11:05:30;96675.69;;;23.99;88.99
35226;BME280;21813;49.686;21.766;2023-08-06T11:07:57;96671.19;;;23.99;90.13
35226;BME280;21813;49.686;21.766;2023-08-06T11:10:33;96684.44;;;24.16;90.64
35226;BME280;21813;49.686;21.766;2023-08-06T11:13:01;96650.31;;;24.13;93.94
35226;BME280;21813;49.686;21.766;2023-08-06T11:15:28;96682.69;;;24.27;88.56
35226;BME280;21813;49.686;21.766;2023-08-06T11:17:57;96684.78;;;24.25;86.69
35226;BME280;21813;49.686;21.766;2023-08-06T11:20:26;96671.47;;;24.25;87.83
35226;BME280;21813;49.686;21.766;2023-08-06T11:22:54;96645.22;;;24.11;88.36
35226;BME280;21813;49.686;21.766;2023-08-06T11:25:20;96674.44;;;24.28;88.42
35226;BME280;21813;49.686;21.766;2023-08-06T11:27:48;96671.22;;;24.26;87.25
35226;BME280;21813;49.686;21.766;2023-08-06T11:30:14;96664.34;;;24.30;87.65
35226;BME280;21813;49.686;21.766;2023-08-06T11:32:46;96676.34;;;24.33;84.88
35226;BME280;21813;49.686;21.766;2023-08-06T11:35:13;96662.00;;;24.12;85.10
35226;BME280;21813;49.686;21.766;2023-08-06T11:37:40;96664.16;;;24.15;87.03
35226;BME280;21813;49.686;21.766;2023-08-06T11:40:09;96633.41;;;24.02;86.78
35226;BME280;21813;49.686;21.766;2023-08-06T11:42:38;96614.72;;;23.97;85.56
35226;BME280;21813;49.686;21.766;2023-08-06T11:45:04;96631.78;;;24.01;87.63
35226;BME280;21813;49.686;21.766;2023-08-06T11:47:31;96648.19;;;24.15;87.53
35226;BME280;21813;49.686;21.766;2023-08-06T11:49:57;96652.53;;;24.21;86.18
35226;BME280;21813;49.686;21.766;2023-08-06T11:52:24;96637.53;;;24.15;87.00
35226;BME280;21813;49.686;21.766;2023-08-06T11:57:34;96651.16;;;24.18;87.64
35226;BME280;21813;49.686;21.766;2023-08-06T12:00:03;96674.06;;;24.19;84.46
35226;BME280;21813;49.686;21.766;2023-08-06T12:02:31;96661.19;;;24.11;85.17
35226;BME280;21813;49.686;21.766;2023-08-06T12:05:14;96661.75;;;24.13;87.63
35226;BME280;21813;49.686;21.766;2023-08-06T12:07:53;96649.97;;;24.09;85.46
35226;BME280;21813;49.686;21.766;2023-08-06T12:10:23;96618.00;;;23.83;87.19
35226;BME280;21813;49.686;21.766;2023-08-06T12:12:49;96619.31;;;23.80;86.31
35226;BME280;21813;49.686;21.766;2023-08-06T12:15:21;96629.25;;;23.68;85.61
35226;BME280;21813;49.686;21.766;2023-08-06T12:17:47;96633.47;;;23.64;87.04
35226;BME280;21813;49.686;21.766;2023-08-06T12:20:14;96627.63;;;23.62;88.09
35226;BME280;21813;49.686;21.766;2023-08-06T12:22:40;96643.56;;;23.62;88.41
35226;BME280;21813;49.686;21.766;2023-08-06T12:25:10;96630.22;;;23.57;88.80
35226;BME280;21813;49.686;21.766;2023-08-06T12:27:38;96638.50;;;23.60;88.62
35226;BME280;21813;49.686;21.766;2023-08-06T12:30:15;96639.22;;;23.56;87.88
35226;BME280;21813;49.686;21.766;2023-08-06T12:32:40;96652.91;;;23.64;88.46
35226;BME280;21813;49.686;21.766;2023-08-06T12:35:10;96662.81;;;23.69;87.83
35226;BME280;21813;49.686;21.766;2023-08-06T12:37:36;96667.09;;;23.70;88.56
35226;BME280;21813;49.686;21.766;2023-08-06T12:40:06;96639.72;;;23.53;89.07
35226;BME280;21813;49.686;21.766;2023-08-06T12:42:31;96658.59;;;23.73;89.89
35226;BME280;21813;49.686;21.766;2023-08-06T12:44:58;96657.56;;;23.74;91.12
35226;BME280;21813;49.686;21.766;2023-08-06T12:47:24;96661.38;;;23.83;88.97
35226;BME280;21813;49.686;21.766;2023-08-06T12:49:52;96671.66;;;23.96;89.30
35226;BME280;21813;49.686;21.766;2023-08-06T12:52:18;96670.66;;;24.02;89.50
35226;BME280;21813;49.686;21.766;2023-08-06T12:54:47;96641.47;;;23.86;90.35
35226;BME280;21813;49.686;21.766;2023-08-06T12:57:13;96680.06;;;24.10;89.65
35226;BME280;21813;49.686;21.766;2023-08-06T12:59:41;96666.53;;;23.90;88.39
35226;BME280;21813;49.686;21.766;2023-08-06T13:02:06;96672.16;;;23.93;89.28
35226;BME280;21813;49.686;21.766;2023-08-06T13:04:34;96689.47;;;23.96;89.05
35226;BME280;21813;49.686;21.766;2023-08-06T13:07:01;96674.66;;;24.22;87.56
35226;BME280;21813;49.686;21.766;2023-08-06T13:09:27;96677.69;;;25.21;83.27
35226;BME280;21813;49.686;21.766;2023-08-06T13:11:53;96667.56;;;26.22;79.28
35226;BME280;21813;49.686;21.766;2023-08-06T13:14:23;96682.13;;;27.12;74.80
35226;BME280;21813;49.686;21.766;2023-08-06T13:16:49;96682.06;;;27.47;74.66
35226;BME280;21813;49.686;21.766;2023-08-06T13:19:18;96702.97;;;27.60;73.20
35226;BME280;21813;49.686;21.766;2023-08-06T13:24:14;96693.88;;;27.46;73.22
35226;BME280;21813;49.686;21.766;2023-08-06T13:26:39;96705.66;;;27.00;76.16
35226;BME280;21813;49.686;21.766;2023-08-06T13:29:13;96688.94;;;26.22;78.14
35226;BME280;21813;49.686;21.766;2023-08-06T13:31:39;96717.31;;;25.86;80.70
35226;BME280;21813;49.686;21.766;2023-08-06T13:34:11;96719.94;;;25.34;83.33
35226;BME280;21813;49.686;21.766;2023-08-06T13:36:36;96696.03;;;24.85;85.03
35226;BME280;21813;49.686;21.766;2023-08-06T13:39:03;96715.00;;;24.62;86.78
35226;BME280;21813;49.686;21.766;2023-08-06T13:41:55;96698.59;;;24.22;89.07
35226;BME280;21813;49.686;21.766;2023-08-06T13:44:31;96703.06;;;23.94;90.41
35226;BME280;21813;49.686;21.766;2023-08-06T13:47:01;96726.38;;;23.87;93.13
35226;BME280;21813;49.686;21.766;2023-08-06T13:49:30;96715.31;;;23.57;94.23
35226;BME280;21813;49.686;21.766;2023-08-06T13:51:58;96734.91;;;23.51;95.85
35226;BME280;21813;49.686;21.766;2023-08-06T13:54:26;96722.19;;;23.19;98.19
35226;BME280;21813;49.686;21.766;2023-08-06T13:57:34;96701.47;;;22.88;100.00
35226;BME280;21813;49.686;21.766;2023-08-06T14:00:29;96724.81;;;22.86;100.00
35226;BME280;21813;49.686;21.766;2023-08-06T14:03:04;96706.53;;;22.73;100.00
35226;BME280;21813;49.686;21.766;2023-08-06T14:05:33;96702.25;;;22.72;100.00
35226;BME280;21813;49.686;21.766;2023-08-06T14:08:00;96679.47;;;22.47;100.00
35226;BME280;21813;49.686;21.766;2023-08-06T14:10:28;96676.09;;;22.35;100.00
35226;BME280;21813;49.686;21.766;2023-08-06T14:12:58;96674.56;;;22.39;100.00
35226;BME280;21813;49.686;21.766;2023-08-06T14:15:26;96686.03;;;22.57;100.00
35226;BME280;21813;49.686;21.766;2023-08-06T14:17:52;96676.13;;;22.52;100.00
35226;BME280;21813;49.686;21.766;2023-08-06T14:20:20;96665.59;;;22.57;100.00
35226;BME280;21813;49.686;21.766;2023-08-06T14:22:45;96649.34;;;22.54;100.00
35226;BME280;21813;49.686;21.766;2023-08-06T14:25:19;96651.44;;;22.52;100.00
35226;BME280;21813;49.686;21.766;2023-08-06T14:27:45;96680.53;;;22.75;100.00
35226;BME280;21813;49.686;21.766;2023-08-06T14:30:23;96649.50;;;22.64;100.00
35226;BME280;21813;49.686;21.766;2023-08-06T14:32:49;96694.47;;;22.82;100.00
35226;BME280;21813;49.686;21.766;2023-08-06T14:35:16;96696.53;;;22.80;100.00
35226;BME280;21813;49.686;21.766;2023-08-06T14:37:43;96666.47;;;22.63;100.00
35226;BME280;21813;49.686;21.766;2023-08-06T14:40:13;96682.22;;;23.14;97.75
35226;BME280;21813;49.686;21.766;2023-08-06T14:42:42;96678.34;;;23.99;92.36
35226;BME280;21813;49.686;21.766;2023-08-06T14:45:09;96674.41;;;25.08;87.43
35226;BME280;21813;49.686;21.766;2023-08-06T14:47:35;96670.97;;;26.07;82.04
35226;BME280;21813;49.686;21.766;2023-08-06T14:52:39;96676.19;;;26.64;79.36
35226;BME280;21813;49.686;21.766;2023-08-06T14:55:25;96661.78;;;27.06;77.63
35226;BME280;21813;49.686;21.766;2023-08-06T14:57:52;96681.25;;;27.47;75.34
35226;BME280;21813;49.686;21.766;2023-08-06T15:00:20;96689.03;;;27.63;74.81
35226;BME280;21813;49.686;21.766;2023-08-06T15:02:46;96691.16;;;27.66;75.28
35226;BME280;21813;49.686;21.766;2023-08-06T15:05:13;96694.63;;;27.67;74.33
35226;BME280;21813;49.686;21.766;2023-08-06T15:07:39;96706.63;;;27.80;73.63
35226;BME280;21813;49.686;21.766;2023-08-06T15:10:06;96736.66;;;27.66;74.28
35226;BME280;21813;49.686;21.766;2023-08-06T15:12:33;96741.53;;;27.49;75.15
35226;BME280;21813;49.686;21.766;2023-08-06T15:15:04;96733.47;;;27.44;75.14
35226;BME280;21813;49.686;21.766;2023-08-06T15:17:30;96730.00;;;27.29;75.96
35226;BME280;21813;49.686;21.766;2023-08-06T15:20:11;96729.66;;;26.54;78.67
35226;BME280;21813;49.686;21.766;2023-08-06T15:22:38;96745.09;;;25.90;82.29
35226;BME280;21813;49.686;21.766;2023-08-06T15:25:04;96737.28;;;25.04;84.72
35226;BME280;21813;49.686;21.766;2023-08-06T15:27:33;96732.75;;;24.51;86.73
35226;BME280;21813;49.686;21.766;2023-08-06T15:30:02;96733.00;;;24.06;88.68
35226;BME280;21813;49.686;21.766;2023-08-06T15:32:31;96750.59;;;23.86;90.80
35226;BME280;21813;49.686;21.766;2023-08-06T15:34:57;96741.28;;;23.50;92.98
35226;BME280;21813;49.686;21.766;2023-08-06T15:37:25;96738.69;;;23.21;95.02